sensor_id;sensor_type;location;lat;lon;timestamp;P1;P2;P0
73565;PMS5003;61846;52.970;-3.168;2022-09-01T00:01:23;4;4;
73565;PMS5003;61846;52.970;-3.168;2022-09-01T00:03:49;7;7;
73565;PMS5003;61846;52.970;-3.168;2022-09-01T00:06:13;7;5;
73565;PMS5003;61846;52.970;-3.168;2022-09-01T00:08:39;4;4;
73565;PMS5003;61846;52.970;-3.168;2022-09-01T00:11:04;6;6;
73565;PMS5003;61846;52.970;-3.168;2022-09-01T00:13:29;6;6;
73565;PMS5003;61846;52.970;-3.168;2022-09-01T00:15:55;4;3;
73565;PMS5003;61846;52.970;-3.168;2022-09-01T00:18:20;6;6;
73565;PMS5003;61846;52.970;-3.168;2022-09-01T00:20:46;7;5;
73565;PMS5003;61846;52.970;-3.168;2022-09-01T00:23:11;5;5;
73565;PMS5003;61846;52.970;-3.168;2022-09-01T00:25:36;9;6;
73565;PMS5003;61846;52.970;-3.168;2022-09-01T00:28:02;4;4;
73565;PMS5003;61846;52.970;-3.168;2022-09-01T00:30:27;5;5;
73565;PMS5003;61846;52.970;-3.168;2022-09-01T00:32:52;6;4;
73565;PMS5003;61846;52.970;-3.168;2022-09-01T00:35:18;3;2;
73565;PMS5003;61846;52.970;-3.168;2022-09-01T00:37:43;3;3;
73565;PMS5003;61846;52.970;-3.168;2022-09-01T00:40:10;4;4;
73565;PMS5003;61846;52.970;-3.168;2022-09-01T00:42:34;3;1;
73565;PMS5003;61846;52.970;-3.168;2022-09-01T00:44:59;4;4;
73565;PMS5003;61846;52.970;-3.168;2022-09-01T00:47:25;4;4;
73565;PMS5003;61846;52.970;-3.168;2022-09-01T00:49:50;6;6;
73565;PMS5003;61846;52.970;-3.168;2022-09-01T00:52:16;7;5;
73565;PMS5003;61846;52.970;-3.168;2022-09-01T00:54:42;6;5;
73565;PMS5003;61846;52.970;-3.168;2022-09-01T00:57:07;5;3;
73565;PMS5003;61846;52.970;-3.168;2022-09-01T00:59:32;5;4;
73565;PMS5003;61846;52.970;-3.168;2022-09-01T01:01:57;5;5;
73565;PMS5003;61846;52.970;-3.168;2022-09-01T01:04:23;3;2;
73565;PMS5003;61846;52.970;-3.168;2022-09-01T01:06:50;3;3;
73565;PMS5003;61846;52.970;-3.168;2022-09-01T01:09:13;5;5;
73565;PMS5003;61846;52.970;-3.168;2022-09-01T01:11:39;3;1;
73565;PMS5003;61846;52.970;-3.168;2022-09-01T01:14:05;4;4;
73565;PMS5003;61846;52.970;-3.168;2022-09-01T01:16:30;5;5;
73565;PMS5003;61846;52.970;-3.168;2022-09-01T01:18:55;6;4;
73565;PMS5003;61846;52.970;-3.168;2022-09-01T01:21:21;3;3;
73565;PMS5003;61846;52.970;-3.168;2022-09-01T01:23:47;4;4;
73565;PMS5003;61846;52.970;-3.168;2022-09-01T01:26:11;7;6;
73565;PMS5003;61846;52.970;-3.168;2022-09-01T01:28:37;5;4;
73565;PMS5003;61846;52.970;-3.168;2022-09-01T01:31:03;4;4;
73565;PMS5003;61846;52.970;-3.168;2022-09-01T01:33:28;6;6;
73565;PMS5003;61846;52.970;-3.168;2022-09-01T01:35:53;5;5;
73565;PMS5003;61846;52.970;-3.168;2022-09-01T01:38:18;5;5;
73565;PMS5003;61846;52.970;-3.168;2022-09-01T01:40:43;7;6;
73565;PMS5003;61846;52.970;-3.168;2022-09-01T01:43:09;5;5;
73565;PMS5003;61846;52.970;-3.168;2022-09-01T01:45:34;6;5;
73565;PMS5003;61846;52.970;-3.168;2022-09-01T01:48:00;7;7;
73565;PMS5003;61846;52.970;-3.168;2022-09-01T01:50:28;4;4;
73565;PMS5003;61846;52.970;-3.168;2022-09-01T01:52:51;7;6;
73565;PMS5003;61846;52.970;-3.168;2022-09-01T01:55:16;5;4;
73565;PMS5003;61846;52.970;-3.168;2022-09-01T01:57:41;4;3;
73565;PMS5003;61846;52.970;-3.168;2022-09-01T02:00:07;4;4;
73565;PMS5003;61846;52.970;-3.168;2022-09-01T02:02:32;8;5;
73565;PMS5003;61846;52.970;-3.168;2022-09-01T02:04:58;8;4;
73565;PMS5003;61846;52.970;-3.168;2022-09-01T02:07:23;7;5;
73565;PMS5003;61846;52.970;-3.168;2022-09-01T02:09:49;6;5;
73565;PMS5003;61846;52.970;-3.168;2022-09-01T02:12:14;8;7;
73565;PMS5003;61846;52.970;-3.168;2022-09-01T02:14:39;5;4;
73565;PMS5003;61846;52.970;-3.168;2022-09-01T02:17:05;6;6;
73565;PMS5003;61846;52.970;-3.168;2022-09-01T02:19:30;6;6;
73565;PMS5003;61846;52.970;-3.168;2022-09-01T02:21:56;6;5;
73565;PMS5003;61846;52.970;-3.168;2022-09-01T02:24:21;4;3;
73565;PMS5003;61846;52.970;-3.168;2022-09-01T02:26:46;6;4;
73565;PMS5003;61846;52.970;-3.168;2022-09-01T02:29:12;12;5;
73565;PMS5003;61846;52.970;-3.168;2022-09-01T02:31:37;7;6;
73565;PMS5003;61846;52.970;-3.168;2022-09-01T02:34:02;4;3;
73565;PMS5003;61846;52.970;-3.168;2022-09-01T02:36:28;8;7;
73565;PMS5003;61846;52.970;-3.168;2022-09-01T02:38:53;9;6;
73565;PMS5003;61846;52.970;-3.168;2022-09-01T02:41:19;11;9;
73565;PMS5003;61846;52.970;-3.168;2022-09-01T02:43:44;9;8;
73565;PMS5003;61846;52.970;-3.168;2022-09-01T02:46:09;8;8;
73565;PMS5003;61846;52.970;-3.168;2022-09-01T02:48:35;7;7;
73565;PMS5003;61846;52.970;-3.168;2022-09-01T02:51:00;7;7;
73565;PMS5003;61846;52.970;-3.168;2022-09-01T02:53:25;9;7;
73565;PMS5003;61846;52.970;-3.168;2022-09-01T02:55:51;8;8;
73565;PMS5003;61846;52.970;-3.168;2022-09-01T02:58:16;6;6;
73565;PMS5003;61846;52.970;-3.168;2022-09-01T03:00:42;6;5;
73565;PMS5003;61846;52.970;-3.168;2022-09-01T03:03:07;6;5;
73565;PMS5003;61846;52.970;-3.168;2022-09-01T03:05:33;11;8;
73565;PMS5003;61846;52.970;-3.168;2022-09-01T03:07:59;5;5;
73565;PMS5003;61846;52.970;-3.168;2022-09-01T03:10:24;10;9;
73565;PMS5003;61846;52.970;-3.168;2022-09-01T03:12:49;10;9;
73565;PMS5003;61846;52.970;-3.168;2022-09-01T03:15:14;9;9;
73565;PMS5003;61846;52.970;-3.168;2022-09-01T03:17:40;12;10;
73565;PMS5003;61846;52.970;-3.168;2022-09-01T03:20:06;12;8;
73565;PMS5003;61846;52.970;-3.168;2022-09-01T03:22:30;12;10;
73565;PMS5003;61846;52.970;-3.168;2022-09-01T03:24:56;9;7;
73565;PMS5003;61846;52.970;-3.168;2022-09-01T03:27:21;9;7;
73565;PMS5003;61846;52.970;-3.168;2022-09-01T03:29:47;11;10;
73565;PMS5003;61846;52.970;-3.168;2022-09-01T03:32:12;6;6;
73565;PMS5003;61846;52.970;-3.168;2022-09-01T03:34:38;8;8;
73565;PMS5003;61846;52.970;-3.168;2022-09-01T03:37:03;10;8;
73565;PMS5003;61846;52.970;-3.168;2022-09-01T03:39:28;8;8;
73565;PMS5003;61846;52.970;-3.168;2022-09-01T03:41:54;8;8;
73565;PMS5003;61846;52.970;-3.168;2022-09-01T03:44:20;9;9;
73565;PMS5003;61846;52.970;-3.168;2022-09-01T03:46:45;9;8;
73565;PMS5003;61846;52.970;-3.168;2022-09-01T03:49:10;9;9;
73565;PMS5003;61846;52.970;-3.168;2022-09-01T03:51:36;19;10;
73565;PMS5003;61846;52.970;-3.168;2022-09-01T03:54:02;6;6;
73565;PMS5003;61846;52.970;-3.168;2022-09-01T03:56:27;5;5;
73565;PMS5003;61846;52.970;-3.168;2022-09-01T03:58:52;12;11;
73565;PMS5003;61846;52.970;-3.168;2022-09-01T04:01:18;9;9;
73565;PMS5003;61846;52.970;-3.168;2022-09-01T04:03:43;9;7;
73565;PMS5003;61846;52.970;-3.168;2022-09-01T04:06:08;7;7;
73565;PMS5003;61846;52.970;-3.168;2022-09-01T04:08:34;11;8;
73565;PMS5003;61846;52.970;-3.168;2022-09-01T04:11:00;8;8;
73565;PMS5003;61846;52.970;-3.168;2022-09-01T04:13:26;9;9;
73565;PMS5003;61846;52.970;-3.168;2022-09-01T04:15:50;13;10;
73565;PMS5003;61846;52.970;-3.168;2022-09-01T04:18:16;6;6;
73565;PMS5003;61846;52.970;-3.168;2022-09-01T04:20:41;8;7;
73565;PMS5003;61846;52.970;-3.168;2022-09-01T04:23:06;9;9;
73565;PMS5003;61846;52.970;-3.168;2022-09-01T04:25:31;8;8;
73565;PMS5003;61846;52.970;-3.168;2022-09-01T04:27:57;6;6;
73565;PMS5003;61846;52.970;-3.168;2022-09-01T04:30:22;8;7;
73565;PMS5003;61846;52.970;-3.168;2022-09-01T04:32:48;10;10;
73565;PMS5003;61846;52.970;-3.168;2022-09-01T04:35:13;9;8;
73565;PMS5003;61846;52.970;-3.168;2022-09-01T04:37:39;9;8;
73565;PMS5003;61846;52.970;-3.168;2022-09-01T04:40:04;5;5;
73565;PMS5003;61846;52.970;-3.168;2022-09-01T04:42:30;5;5;
73565;PMS5003;61846;52.970;-3.168;2022-09-01T04:44:55;7;5;
73565;PMS5003;61846;52.970;-3.168;2022-09-01T04:47:20;8;7;
73565;PMS5003;61846;52.970;-3.168;2022-09-01T04:49:45;11;7;
73565;PMS5003;61846;52.970;-3.168;2022-09-01T04:52:11;8;7;
73565;PMS5003;61846;52.970;-3.168;2022-09-01T04:54:37;8;8;
73565;PMS5003;61846;52.970;-3.168;2022-09-01T04:57:02;9;9;
73565;PMS5003;61846;52.970;-3.168;2022-09-01T04:59:27;9;9;
73565;PMS5003;61846;52.970;-3.168;2022-09-01T05:01:53;11;10;
73565;PMS5003;61846;52.970;-3.168;2022-09-01T05:04:19;6;6;
73565;PMS5003;61846;52.970;-3.168;2022-09-01T05:06:44;5;5;
73565;PMS5003;61846;52.970;-3.168;2022-09-01T05:09:09;7;7;
73565;PMS5003;61846;52.970;-3.168;2022-09-01T05:11:34;9;9;
73565;PMS5003;61846;52.970;-3.168;2022-09-01T05:14:00;7;7;
73565;PMS5003;61846;52.970;-3.168;2022-09-01T05:16:25;7;7;
73565;PMS5003;61846;52.970;-3.168;2022-09-01T05:18:50;7;7;
73565;PMS5003;61846;52.970;-3.168;2022-09-01T05:21:18;11;9;
73565;PMS5003;61846;52.970;-3.168;2022-09-01T05:23:41;7;7;
73565;PMS5003;61846;52.970;-3.168;2022-09-01T05:26:11;8;8;
73565;PMS5003;61846;52.970;-3.168;2022-09-01T05:28:31;11;10;
73565;PMS5003;61846;52.970;-3.168;2022-09-01T05:30:58;8;8;
73565;PMS5003;61846;52.970;-3.168;2022-09-01T05:33:22;8;7;
73565;PMS5003;61846;52.970;-3.168;2022-09-01T05:35:51;12;11;
73565;PMS5003;61846;52.970;-3.168;2022-09-01T05:38:13;11;10;
73565;PMS5003;61846;52.970;-3.168;2022-09-01T05:40:39;13;11;
73565;PMS5003;61846;52.970;-3.168;2022-09-01T05:43:04;10;8;
73565;PMS5003;61846;52.970;-3.168;2022-09-01T05:45:29;11;11;
73565;PMS5003;61846;52.970;-3.168;2022-09-01T05:47:55;9;9;
73565;PMS5003;61846;52.970;-3.168;2022-09-01T05:50:20;10;8;
73565;PMS5003;61846;52.970;-3.168;2022-09-01T05:52:45;12;12;
73565;PMS5003;61846;52.970;-3.168;2022-09-01T05:55:11;11;10;
73565;PMS5003;61846;52.970;-3.168;2022-09-01T05:57:36;10;8;
73565;PMS5003;61846;52.970;-3.168;2022-09-01T06:00:04;8;7;
73565;PMS5003;61846;52.970;-3.168;2022-09-01T06:02:27;8;8;
73565;PMS5003;61846;52.970;-3.168;2022-09-01T06:04:52;13;11;
73565;PMS5003;61846;52.970;-3.168;2022-09-01T06:07:18;11;9;
73565;PMS5003;61846;52.970;-3.168;2022-09-01T06:09:44;11;9;
73565;PMS5003;61846;52.970;-3.168;2022-09-01T06:12:09;11;10;
73565;PMS5003;61846;52.970;-3.168;2022-09-01T06:14:34;10;8;
73565;PMS5003;61846;52.970;-3.168;2022-09-01T06:16:59;15;11;
73565;PMS5003;61846;52.970;-3.168;2022-09-01T06:19:25;5;5;
73565;PMS5003;61846;52.970;-3.168;2022-09-01T06:21:50;10;8;
73565;PMS5003;61846;52.970;-3.168;2022-09-01T06:24:15;12;12;
73565;PMS5003;61846;52.970;-3.168;2022-09-01T06:26:41;14;11;
73565;PMS5003;61846;52.970;-3.168;2022-09-01T06:29:07;9;8;
73565;PMS5003;61846;52.970;-3.168;2022-09-01T06:31:33;8;8;
73565;PMS5003;61846;52.970;-3.168;2022-09-01T06:33:59;10;10;
73565;PMS5003;61846;52.970;-3.168;2022-09-01T06:36:23;11;10;
73565;PMS5003;61846;52.970;-3.168;2022-09-01T06:38:49;20;10;
73565;PMS5003;61846;52.970;-3.168;2022-09-01T06:41:14;12;11;
73565;PMS5003;61846;52.970;-3.168;2022-09-01T06:43:39;10;10;
73565;PMS5003;61846;52.970;-3.168;2022-09-01T06:46:04;12;9;
73565;PMS5003;61846;52.970;-3.168;2022-09-01T06:48:30;7;7;
73565;PMS5003;61846;52.970;-3.168;2022-09-01T06:50:58;16;8;
73565;PMS5003;61846;52.970;-3.168;2022-09-01T06:53:20;12;9;
73565;PMS5003;61846;52.970;-3.168;2022-09-01T06:55:47;9;9;
73565;PMS5003;61846;52.970;-3.168;2022-09-01T06:58:11;9;9;
73565;PMS5003;61846;52.970;-3.168;2022-09-01T07:00:37;13;9;
73565;PMS5003;61846;52.970;-3.168;2022-09-01T07:03:03;11;10;
73565;PMS5003;61846;52.970;-3.168;2022-09-01T07:05:28;10;9;
73565;PMS5003;61846;52.970;-3.168;2022-09-01T07:07:54;8;8;
73565;PMS5003;61846;52.970;-3.168;2022-09-01T07:10:19;13;12;
73565;PMS5003;61846;52.970;-3.168;2022-09-01T07:12:45;11;9;
73565;PMS5003;61846;52.970;-3.168;2022-09-01T07:15:10;11;9;
73565;PMS5003;61846;52.970;-3.168;2022-09-01T07:17:35;9;7;
73565;PMS5003;61846;52.970;-3.168;2022-09-01T07:20:01;16;11;
73565;PMS5003;61846;52.970;-3.168;2022-09-01T07:22:26;10;10;
73565;PMS5003;61846;52.970;-3.168;2022-09-01T07:24:52;9;9;
73565;PMS5003;61846;52.970;-3.168;2022-09-01T07:27:17;11;10;
73565;PMS5003;61846;52.970;-3.168;2022-09-01T07:29:43;9;9;
73565;PMS5003;61846;52.970;-3.168;2022-09-01T07:32:08;8;8;
73565;PMS5003;61846;52.970;-3.168;2022-09-01T07:34:33;10;10;
73565;PMS5003;61846;52.970;-3.168;2022-09-01T07:36:59;10;10;
73565;PMS5003;61846;52.970;-3.168;2022-09-01T07:39:24;14;12;
73565;PMS5003;61846;52.970;-3.168;2022-09-01T07:41:49;10;10;
73565;PMS5003;61846;52.970;-3.168;2022-09-01T07:44:15;12;11;
73565;PMS5003;61846;52.970;-3.168;2022-09-01T07:46:40;14;11;
73565;PMS5003;61846;52.970;-3.168;2022-09-01T07:49:05;10;10;
73565;PMS5003;61846;52.970;-3.168;2022-09-01T07:51:31;13;9;
73565;PMS5003;61846;52.970;-3.168;2022-09-01T07:53:56;9;7;
73565;PMS5003;61846;52.970;-3.168;2022-09-01T07:56:22;8;8;
73565;PMS5003;61846;52.970;-3.168;2022-09-01T07:58:47;8;8;
73565;PMS5003;61846;52.970;-3.168;2022-09-01T08:01:13;11;9;
73565;PMS5003;61846;52.970;-3.168;2022-09-01T08:03:38;8;8;
73565;PMS5003;61846;52.970;-3.168;2022-09-01T08:06:03;10;9;
73565;PMS5003;61846;52.970;-3.168;2022-09-01T08:08:28;10;10;
73565;PMS5003;61846;52.970;-3.168;2022-09-01T08:10:53;8;5;
73565;PMS5003;61846;52.970;-3.168;2022-09-01T08:13:19;13;12;
73565;PMS5003;61846;52.970;-3.168;2022-09-01T08:15:44;13;10;
73565;PMS5003;61846;52.970;-3.168;2022-09-01T08:18:10;11;9;
73565;PMS5003;61846;52.970;-3.168;2022-09-01T08:20:36;9;7;
73565;PMS5003;61846;52.970;-3.168;2022-09-01T08:23:00;5;5;
73565;PMS5003;61846;52.970;-3.168;2022-09-01T08:25:27;9;7;
73565;PMS5003;61846;52.970;-3.168;2022-09-01T08:27:51;7;5;
73565;PMS5003;61846;52.970;-3.168;2022-09-01T08:30:16;9;8;
73565;PMS5003;61846;52.970;-3.168;2022-09-01T08:32:41;8;8;
73565;PMS5003;61846;52.970;-3.168;2022-09-01T08:35:07;10;8;
73565;PMS5003;61846;52.970;-3.168;2022-09-01T08:37:32;5;5;
73565;PMS5003;61846;52.970;-3.168;2022-09-01T08:39:58;9;8;
73565;PMS5003;61846;52.970;-3.168;2022-09-01T08:42:26;8;6;
73565;PMS5003;61846;52.970;-3.168;2022-09-01T08:44:50;6;5;
73565;PMS5003;61846;52.970;-3.168;2022-09-01T08:47:15;11;10;
73565;PMS5003;61846;52.970;-3.168;2022-09-01T08:49:39;13;8;
73565;PMS5003;61846;52.970;-3.168;2022-09-01T08:52:06;5;5;
73565;PMS5003;61846;52.970;-3.168;2022-09-01T08:54:31;8;8;
73565;PMS5003;61846;52.970;-3.168;2022-09-01T08:56:57;6;6;
73565;PMS5003;61846;52.970;-3.168;2022-09-01T08:59:20;15;9;
73565;PMS5003;61846;52.970;-3.168;2022-09-01T09:01:47;10;8;
73565;PMS5003;61846;52.970;-3.168;2022-09-01T09:04:14;6;5;
73565;PMS5003;61846;52.970;-3.168;2022-09-01T09:06:39;9;7;
73565;PMS5003;61846;52.970;-3.168;2022-09-01T09:09:02;7;7;
73565;PMS5003;61846;52.970;-3.168;2022-09-01T09:11:40;7;6;
73565;PMS5003;61846;52.970;-3.168;2022-09-01T09:13:55;11;8;
73565;PMS5003;61846;52.970;-3.168;2022-09-01T09:16:20;7;4;
73565;PMS5003;61846;52.970;-3.168;2022-09-01T09:18:45;7;7;
73565;PMS5003;61846;52.970;-3.168;2022-09-01T09:21:10;9;6;
73565;PMS5003;61846;52.970;-3.168;2022-09-01T09:23:35;5;3;
73565;PMS5003;61846;52.970;-3.168;2022-09-01T09:26:00;6;6;
73565;PMS5003;61846;52.970;-3.168;2022-09-01T09:28:25;6;6;
73565;PMS5003;61846;52.970;-3.168;2022-09-01T09:30:50;6;6;
73565;PMS5003;61846;52.970;-3.168;2022-09-01T09:35:42;7;5;
73565;PMS5003;61846;52.970;-3.168;2022-09-01T09:38:15;4;4;
73565;PMS5003;61846;52.970;-3.168;2022-09-01T09:40:32;7;5;
73565;PMS5003;61846;52.970;-3.168;2022-09-01T09:42:58;7;5;
73565;PMS5003;61846;52.970;-3.168;2022-09-01T09:45:23;4;4;
73565;PMS5003;61846;52.970;-3.168;2022-09-01T09:47:48;4;4;
73565;PMS5003;61846;52.970;-3.168;2022-09-01T09:50:16;5;4;
73565;PMS5003;61846;52.970;-3.168;2022-09-01T09:52:38;7;5;
73565;PMS5003;61846;52.970;-3.168;2022-09-01T09:55:05;4;4;
73565;PMS5003;61846;52.970;-3.168;2022-09-01T09:57:29;5;4;
73565;PMS5003;61846;52.970;-3.168;2022-09-01T09:59:56;5;5;
73565;PMS5003;61846;52.970;-3.168;2022-09-01T10:02:22;3;3;
73565;PMS5003;61846;52.970;-3.168;2022-09-01T10:04:45;2;2;
73565;PMS5003;61846;52.970;-3.168;2022-09-01T10:09:36;5;4;
73565;PMS5003;61846;52.970;-3.168;2022-09-01T10:12:02;6;4;
73565;PMS5003;61846;52.970;-3.168;2022-09-01T10:14:29;2;2;
73565;PMS5003;61846;52.970;-3.168;2022-09-01T10:16:53;3;2;
73565;PMS5003;61846;52.970;-3.168;2022-09-01T10:19:18;3;3;
73565;PMS5003;61846;52.970;-3.168;2022-09-01T10:21:43;5;4;
73565;PMS5003;61846;52.970;-3.168;2022-09-01T10:24:15;2;2;
73565;PMS5003;61846;52.970;-3.168;2022-09-01T10:26:34;4;3;
73565;PMS5003;61846;52.970;-3.168;2022-09-01T10:29:00;2;2;
73565;PMS5003;61846;52.970;-3.168;2022-09-01T10:31:25;0;0;
73565;PMS5003;61846;52.970;-3.168;2022-09-01T10:33:50;3;3;
73565;PMS5003;61846;52.970;-3.168;2022-09-01T10:36:15;5;4;
73565;PMS5003;61846;52.970;-3.168;2022-09-01T10:38:41;3;2;
73565;PMS5003;61846;52.970;-3.168;2022-09-01T10:41:06;3;3;
73565;PMS5003;61846;52.970;-3.168;2022-09-01T10:43:33;2;2;
73565;PMS5003;61846;52.970;-3.168;2022-09-01T10:45:57;3;3;
73565;PMS5003;61846;52.970;-3.168;2022-09-01T10:48:25;2;1;
73565;PMS5003;61846;52.970;-3.168;2022-09-01T10:50:48;4;3;
73565;PMS5003;61846;52.970;-3.168;2022-09-01T10:55:39;4;2;
73565;PMS5003;61846;52.970;-3.168;2022-09-01T10:58:11;2;2;
73565;PMS5003;61846;52.970;-3.168;2022-09-01T11:05:19;1;1;
73565;PMS5003;61846;52.970;-3.168;2022-09-01T11:07:45;0;0;
73565;PMS5003;61846;52.970;-3.168;2022-09-01T11:10:15;1;1;
73565;PMS5003;61846;52.970;-3.168;2022-09-01T11:12:38;3;3;
73565;PMS5003;61846;52.970;-3.168;2022-09-01T11:15:02;1;1;
73565;PMS5003;61846;52.970;-3.168;2022-09-01T11:17:26;2;2;
73565;PMS5003;61846;52.970;-3.168;2022-09-01T11:19:57;3;3;
73565;PMS5003;61846;52.970;-3.168;2022-09-01T11:22:21;2;1;
73565;PMS5003;61846;52.970;-3.168;2022-09-01T11:24:44;3;3;
73565;PMS5003;61846;52.970;-3.168;2022-09-01T11:27:08;5;4;
73565;PMS5003;61846;52.970;-3.168;2022-09-01T11:31:58;2;2;
73565;PMS5003;61846;52.970;-3.168;2022-09-01T11:34:23;3;3;
73565;PMS5003;61846;52.970;-3.168;2022-09-01T11:36:51;3;3;
73565;PMS5003;61846;52.970;-3.168;2022-09-01T11:39:19;3;1;
73565;PMS5003;61846;52.970;-3.168;2022-09-01T11:41:45;3;3;
73565;PMS5003;61846;52.970;-3.168;2022-09-01T11:44:09;3;2;
73565;PMS5003;61846;52.970;-3.168;2022-09-01T11:46:31;1;1;
73565;PMS5003;61846;52.970;-3.168;2022-09-01T11:48:55;4;2;
73565;PMS5003;61846;52.970;-3.168;2022-09-01T11:51:20;7;2;
73565;PMS5003;61846;52.970;-3.168;2022-09-01T11:53:45;3;1;
73565;PMS5003;61846;52.970;-3.168;2022-09-01T11:56:12;2;2;
73565;PMS5003;61846;52.970;-3.168;2022-09-01T11:58:36;3;3;
73565;PMS5003;61846;52.970;-3.168;2022-09-01T12:03:27;4;2;
73565;PMS5003;61846;52.970;-3.168;2022-09-01T12:05:53;0;0;
73565;PMS5003;61846;52.970;-3.168;2022-09-01T12:08:17;1;1;
73565;PMS5003;61846;52.970;-3.168;2022-09-01T12:10:42;3;2;
73565;PMS5003;61846;52.970;-3.168;2022-09-01T12:13:08;3;1;
73565;PMS5003;61846;52.970;-3.168;2022-09-01T12:15:33;0;0;
73565;PMS5003;61846;52.970;-3.168;2022-09-01T12:20:26;1;1;
73565;PMS5003;61846;52.970;-3.168;2022-09-01T12:22:49;2;2;
73565;PMS5003;61846;52.970;-3.168;2022-09-01T12:25:17;1;1;
73565;PMS5003;61846;52.970;-3.168;2022-09-01T12:27:39;1;1;
73565;PMS5003;61846;52.970;-3.168;2022-09-01T12:30:05;1;0;
73565;PMS5003;61846;52.970;-3.168;2022-09-01T12:32:30;4;1;
73565;PMS5003;61846;52.970;-3.168;2022-09-01T12:34:59;2;2;
73565;PMS5003;61846;52.970;-3.168;2022-09-01T12:37:21;1;1;
73565;PMS5003;61846;52.970;-3.168;2022-09-01T12:39:46;3;3;
73565;PMS5003;61846;52.970;-3.168;2022-09-01T12:42:21;4;2;
73565;PMS5003;61846;52.970;-3.168;2022-09-01T12:44:43;3;1;
73565;PMS5003;61846;52.970;-3.168;2022-09-01T12:47:02;2;0;
73565;PMS5003;61846;52.970;-3.168;2022-09-01T12:56:46;4;2;
73565;PMS5003;61846;52.970;-3.168;2022-09-01T12:59:10;2;2;
73565;PMS5003;61846;52.970;-3.168;2022-09-01T13:01:33;2;2;
73565;PMS5003;61846;52.970;-3.168;2022-09-01T13:04:05;2;1;
73565;PMS5003;61846;52.970;-3.168;2022-09-01T13:06:23;4;4;
73565;PMS5003;61846;52.970;-3.168;2022-09-01T13:08:49;2;2;
73565;PMS5003;61846;52.970;-3.168;2022-09-01T13:11:14;3;2;
73565;PMS5003;61846;52.970;-3.168;2022-09-01T13:13:39;4;4;
73565;PMS5003;61846;52.970;-3.168;2022-09-01T13:16:04;5;2;
73565;PMS5003;61846;52.970;-3.168;2022-09-01T13:18:30;3;3;
73565;PMS5003;61846;52.970;-3.168;2022-09-01T13:20:55;2;2;
73565;PMS5003;61846;52.970;-3.168;2022-09-01T13:23:20;5;3;
73565;PMS5003;61846;52.970;-3.168;2022-09-01T13:25:45;2;2;
73565;PMS5003;61846;52.970;-3.168;2022-09-01T13:28:11;1;1;
73565;PMS5003;61846;52.970;-3.168;2022-09-01T13:30:36;2;2;
73565;PMS5003;61846;52.970;-3.168;2022-09-01T13:33:01;1;1;
73565;PMS5003;61846;52.970;-3.168;2022-09-01T13:35:26;2;0;
73565;PMS5003;61846;52.970;-3.168;2022-09-01T13:37:51;1;1;
73565;PMS5003;61846;52.970;-3.168;2022-09-01T13:40:17;4;3;
73565;PMS5003;61846;52.970;-3.168;2022-09-01T13:42:42;3;2;
73565;PMS5003;61846;52.970;-3.168;2022-09-01T13:45:08;2;2;
73565;PMS5003;61846;52.970;-3.168;2022-09-01T13:47:32;4;3;
73565;PMS5003;61846;52.970;-3.168;2022-09-01T13:49:58;3;3;
73565;PMS5003;61846;52.970;-3.168;2022-09-01T13:52:23;3;1;
73565;PMS5003;61846;52.970;-3.168;2022-09-01T13:54:48;1;0;
73565;PMS5003;61846;52.970;-3.168;2022-09-01T13:57:13;2;0;
73565;PMS5003;61846;52.970;-3.168;2022-09-01T13:59:38;0;0;
73565;PMS5003;61846;52.970;-3.168;2022-09-01T14:02:04;1;1;
73565;PMS5003;61846;52.970;-3.168;2022-09-01T14:04:29;1;1;
73565;PMS5003;61846;52.970;-3.168;2022-09-01T14:06:54;2;1;
73565;PMS5003;61846;52.970;-3.168;2022-09-01T14:09:19;2;2;
73565;PMS5003;61846;52.970;-3.168;2022-09-01T14:11:45;8;1;
73565;PMS5003;61846;52.970;-3.168;2022-09-01T14:14:10;1;1;
73565;PMS5003;61846;52.970;-3.168;2022-09-01T14:16:36;6;3;
73565;PMS5003;61846;52.970;-3.168;2022-09-01T14:19:01;4;4;
73565;PMS5003;61846;52.970;-3.168;2022-09-01T14:21:27;21;12;
73565;PMS5003;61846;52.970;-3.168;2022-09-01T14:23:52;3;3;
73565;PMS5003;61846;52.970;-3.168;2022-09-01T14:26:17;1;1;
73565;PMS5003;61846;52.970;-3.168;2022-09-01T14:28:44;2;2;
73565;PMS5003;61846;52.970;-3.168;2022-09-01T14:31:08;2;2;
73565;PMS5003;61846;52.970;-3.168;2022-09-01T14:33:33;2;2;
73565;PMS5003;61846;52.970;-3.168;2022-09-01T14:35:58;2;1;
73565;PMS5003;61846;52.970;-3.168;2022-09-01T14:38:23;1;1;
73565;PMS5003;61846;52.970;-3.168;2022-09-01T14:40:49;5;5;
73565;PMS5003;61846;52.970;-3.168;2022-09-01T14:43:14;1;1;
73565;PMS5003;61846;52.970;-3.168;2022-09-01T14:45:40;2;0;
73565;PMS5003;61846;52.970;-3.168;2022-09-01T14:48:05;10;3;
73565;PMS5003;61846;52.970;-3.168;2022-09-01T14:50:30;2;2;
73565;PMS5003;61846;52.970;-3.168;2022-09-01T14:52:55;1;1;
73565;PMS5003;61846;52.970;-3.168;2022-09-01T14:55:21;2;2;
73565;PMS5003;61846;52.970;-3.168;2022-09-01T14:57:46;2;2;
73565;PMS5003;61846;52.970;-3.168;2022-09-01T15:00:11;1;1;
73565;PMS5003;61846;52.970;-3.168;2022-09-01T15:02:36;0;0;
73565;PMS5003;61846;52.970;-3.168;2022-09-01T15:05:02;1;1;
73565;PMS5003;61846;52.970;-3.168;2022-09-01T15:07:27;1;1;
73565;PMS5003;61846;52.970;-3.168;2022-09-01T15:09:52;2;2;
73565;PMS5003;61846;52.970;-3.168;2022-09-01T15:12:17;2;1;
73565;PMS5003;61846;52.970;-3.168;2022-09-01T15:14:43;0;0;
73565;PMS5003;61846;52.970;-3.168;2022-09-01T15:17:08;2;2;
73565;PMS5003;61846;52.970;-3.168;2022-09-01T15:19:33;2;2;
73565;PMS5003;61846;52.970;-3.168;2022-09-01T15:21:58;3;1;
73565;PMS5003;61846;52.970;-3.168;2022-09-01T15:24:23;2;1;
73565;PMS5003;61846;52.970;-3.168;2022-09-01T15:26:49;3;3;
73565;PMS5003;61846;52.970;-3.168;2022-09-01T15:29:14;1;1;
73565;PMS5003;61846;52.970;-3.168;2022-09-01T15:31:40;1;1;
73565;PMS5003;61846;52.970;-3.168;2022-09-01T15:34:05;0;0;
73565;PMS5003;61846;52.970;-3.168;2022-09-01T15:36:30;1;0;
73565;PMS5003;61846;52.970;-3.168;2022-09-01T15:38:55;2;0;
73565;PMS5003;61846;52.970;-3.168;2022-09-01T15:41:21;3;3;
73565;PMS5003;61846;52.970;-3.168;2022-09-01T15:43:46;2;2;
73565;PMS5003;61846;52.970;-3.168;2022-09-01T15:46:11;3;1;
73565;PMS5003;61846;52.970;-3.168;2022-09-01T15:48:36;3;2;
73565;PMS5003;61846;52.970;-3.168;2022-09-01T15:51:06;4;3;
73565;PMS5003;61846;52.970;-3.168;2022-09-01T15:53:27;1;1;
73565;PMS5003;61846;52.970;-3.168;2022-09-01T15:55:52;3;2;
73565;PMS5003;61846;52.970;-3.168;2022-09-01T15:58:17;2;2;
73565;PMS5003;61846;52.970;-3.168;2022-09-01T16:00:43;1;1;
73565;PMS5003;61846;52.970;-3.168;2022-09-01T16:03:08;1;0;
73565;PMS5003;61846;52.970;-3.168;2022-09-01T16:05:34;2;2;
73565;PMS5003;61846;52.970;-3.168;2022-09-01T16:07:58;2;1;
73565;PMS5003;61846;52.970;-3.168;2022-09-01T16:10:24;3;3;
73565;PMS5003;61846;52.970;-3.168;2022-09-01T16:12:49;1;1;
73565;PMS5003;61846;52.970;-3.168;2022-09-01T16:15:15;3;2;
73565;PMS5003;61846;52.970;-3.168;2022-09-01T16:17:45;2;1;
73565;PMS5003;61846;52.970;-3.168;2022-09-01T16:20:06;1;1;
73565;PMS5003;61846;52.970;-3.168;2022-09-01T16:22:30;4;1;
73565;PMS5003;61846;52.970;-3.168;2022-09-01T16:24:58;2;2;
73565;PMS5003;61846;52.970;-3.168;2022-09-01T16:27:21;2;1;
73565;PMS5003;61846;52.970;-3.168;2022-09-01T16:29:47;1;1;
73565;PMS5003;61846;52.970;-3.168;2022-09-01T16:32:11;2;2;
73565;PMS5003;61846;52.970;-3.168;2022-09-01T16:34:36;3;1;
73565;PMS5003;61846;52.970;-3.168;2022-09-01T16:37:03;0;0;
73565;PMS5003;61846;52.970;-3.168;2022-09-01T16:39:29;5;3;
73565;PMS5003;61846;52.970;-3.168;2022-09-01T16:41:55;2;2;